ADDS METAR Data INFO
IDs: Format: Raw Decoded Include TAF

Data at: 1011 UTC 14 Dec 2017

KBKE 140953Z AUTO 18006KT 8SM OVC005 M03/M06 A3047 RMK AO2 SLP347 T10331061
KBKE 140853Z AUTO 15005KT 7SM OVC007 M04/M07 A3047 RMK AO2 SLP348 T10441072 51011
KBKE 140825Z AUTO 00000KT 7SM OVC009 M04/M07 A3048 RMK AO2 CIG 007V011 T10441072
KBKE 140810Z AUTO 00000KT 7SM OVC010 M07/M09 A3048 RMK AO2 CIG 007V011 T10671089
KBKE 140753Z AUTO 00000KT 7SM OVC009 M06/M08 A3047 RMK AO2 SLP350 T10561083 400221078
KBKE 140653Z AUTO 30003KT 8SM BKN008 M06/M09 A3045 RMK AO2 SLP346 T10561089
KBKE 140609Z AUTO 21004KT 8SM OVC009 M04/M07 A3044 RMK AO2 T10391067
KBKE 140553Z AUTO 33004KT 8SM BKN010 M03/M07 A3044 RMK AO2 CIG 008V014 SLP340 T10331067 10000 21078 51005
KBKE 140453Z AUTO VRB03KT 7SM OVC013 M03/M07 A3043 RMK AO2 SLP340 T10331072
KBKE 140410Z AUTO 18005KT 8SM OVC014 M04/M07 A3044 RMK AO2 T10441072
KBKE 140401Z AUTO 17006KT 9SM BKN015 M06/M08 A3044 RMK AO2 T10561083
KBKE 140353Z AUTO 18005KT 9SM SCT015 M07/M09 A3044 RMK AO2 SLP349 T10671094
KBKE 140253Z AUTO 00000KT 8SM CLR M05/M08 A3042 RMK AO2 SLP339 T10501083 51012
KBKE 140153Z AUTO 00000KT 9SM CLR M04/M08 A3041 RMK AO2 SLP335 T10441078
KBKE 140053Z AUTO 11004KT 10SM CLR M04/M07 A3040 RMK AO2 SLP331 T10391072
KBKE 132353Z AUTO 00000KT 10SM CLR 01/M07 A3038 RMK AO2 SLP320 T00061067 10022 21028 55001
KBKE 132253Z AUTO 00000KT 10SM CLR 02/M06 A3038 RMK AO2 SLP315 T00221061
KBKE 132153Z AUTO 25003KT 10SM CLR 01/M06 A3038 RMK AO2 SLP318 T00111061
KBKE 132053Z AUTO 02004KT 10SM SCT049 02/M06 A3039 RMK AO2 SLP320 T00171061 56007
KBKE 131953Z AUTO 27004KT 10SM CLR 01/M07 A3039 RMK AO2 SLP324 T00061067
KBKE 131853Z AUTO 00000KT 10SM BKN060 M01/M07 A3040 RMK AO2 SLP331 T10111072
KBKE 131753Z AUTO 00000KT 10SM FEW075 M03/M07 A3041 RMK AO2 SLP334 60000 T10281072 11022 21050 55000
KBKE 131653Z AUTO 03003KT 7SM FEW060 M03/M07 A3041 RMK AO2 SLP333 T10331072
KBKE 131553Z AUTO 08003KT 6SM HZ FEW060 BKN085 BKN110 M04/M08 A3039 RMK AO2 SLP328 T10441078
KBKE 131453Z AUTO 11005KT 7SM OVC090 M04/M07 A3041 RMK AO2 UPE01 SLP335 P0000 60000 T10441072 58005
KBKE 131400Z AUTO 00000KT 7SM UP FEW009 OVC075 M04/M08 A3043 RMK AO2 P0000 T10441078
KBKE 131353Z AUTO 00000KT 7SM UP FEW011 OVC080 M04/M08 A3044 RMK AO2 UPB12E36B39 SLP345 P0000 T10441078
KBKE 131338Z AUTO 00000KT 7SM FEW011 BKN070 OVC080 M04/M08 A3043 RMK AO2 UPB12E36 P0000 T10441078
KBKE 131314Z AUTO 00000KT 7SM UP BKN011 BKN050 OVC085 M04/M08 A3043 RMK AO2 UPB12 P0000 T10441078
KBKE 131253Z AUTO 00000KT 7SM BKN009 OVC060 M04/M08 A3043 RMK AO2 SLP342 T10441078
KBKE 131153Z AUTO 00000KT 8SM OVC008 M05/M08 A3043 RMK AO2 SLP340 T10501078 11050 21067 57003
KBKE 131053Z AUTO 10003KT 7SM OVC008 M05/M08 A3043 RMK AO2 SLP340 T10501078
KBKE 131011Z AUTO 12004KT 8SM OVC010 M06/M09 A3044 RMK AO2 T10611089
KBKE 130953Z AUTO 08003KT 8SM OVC009 M06/M08 A3044 RMK AO2 SLP346 T10561083
KBKE 130853Z AUTO 00000KT 8SM OVC008 M06/M08 A3044 RMK AO2 SLP345 T10561078 58007
KBKE 130820Z AUTO 08003KT 8SM OVC009 M06/M08 A3045 RMK AO2 T10561083
KBKE 130753Z AUTO 00000KT 8SM OVC011 M06/M09 A3045 RMK AO2 SLP351 T10611089 410281144
KBKE 130653Z AUTO 00000KT 9SM OVC010 M06/M09 A3045 RMK AO2 SLP353 T10611089
KBKE 130553Z AUTO 00000KT 10SM OVC010 M06/M08 A3046 RMK AO2 SLP355 T10561083 11033 21056 58008
KBKE 130453Z AUTO 14003KT 9SM BKN010 M05/M08 A3047 RMK AO2 SLP360 T10501078
KBKE 130353Z AUTO 00000KT 10SM OVC011 M04/M08 A3049 RMK AO2 SLP366 T10441078
KBKE 130253Z AUTO 06004KT 10SM OVC012 M04/M08 A3049 RMK AO2 SLP370 T10441078 56006
KBKE 130153Z AUTO 07003KT 10SM OVC013 M05/M08 A3049 RMK AO2 SLP373 T10501083
KBKE 130053Z AUTO 09006KT 10SM OVC013 M04/M08 A3049 RMK AO2 SLP374 T10391078
KBKE 122353Z AUTO 10007KT 10SM OVC012 M03/M07 A3051 RMK AO2 SLP378 T10331072 11028 21056 56014
KBKE 122253Z AUTO 09007KT 10SM OVC012 M03/M07 A3052 RMK AO2 SLP381 T10331072